Nearby METAR Reports

 

KOJC - Olathe/Executive, Kansas, USA
Distance from station: N 14mi, 23km
Updated: Sun, 20-Oct-2019 1:53pm CDT
Clear
Clear
 Wind from SE
Wind: SE 17 mph , 28 km/h, Gust: 30 mph , 48 km/h
Temperature: 64°F , 18°C
Dew Point: 52°F , 11°C
Humidity: 64%
Barometer: 29.74 inHg , 1007.1 hPa
Clouds: Clear
Visibility: 10 miles , 16 km
2019/10/20 18:53 KOJC 201853Z 13015G26KT 10SM CLR 18/11 A2974 RMK AO2 PK WND 12026/1847 SLP068 T01780106
KIXD - Olathe/Industria, Kansas, USA
Distance from station: NW 15mi, 25km
Updated: Sun, 20-Oct-2019 1:53pm CDT
Clear
Clear
 Wind from SE
Wind: SE 17 mph , 28 km/h, Gust: 29 mph , 46 km/h
Temperature: 66°F , 19°C
Dew Point: 48°F , 9°C
Humidity: 52%
Barometer: 29.75 inHg , 1007.5 hPa
Clouds: Clear
Visibility: 10 miles , 16 km
2019/10/20 18:53 KIXD 201853Z 13015G25KT 10SM CLR 19/09 A2975 RMK AO2 SLP070 T01890094
 
KLXT - Lees Summit Muni, Missouri, USA
Distance from station: NE 28mi, 46km
Updated: Sun, 20-Oct-2019 1:53pm CDT
Clear
Clear
 Wind from SE
Wind: SE 13 mph , 20 km/h, Gust: 24 mph , 39 km/h
Temperature: 64°F , 18°C
Dew Point: 46°F , 8°C
Humidity: 52%
Barometer: 29.76 inHg , 1007.8 hPa
Clouds: Clear
Visibility: 10 miles , 16 km
2019/10/20 18:53 KLXT 201853Z AUTO 14011G21KT 10SM CLR 18/08 A2976 RMK AO2 SLP075 T01780083 $
KMKC - Kansas City/Dntn, Missouri, USA
Distance from station: N 33mi, 53km
Updated: Sun, 20-Oct-2019 1:54pm CDT
Clear
Clear
 Wind from SE
Wind: SE 17 mph , 28 km/h, Gust: 26 mph , 43 km/h
Temperature: 66°F , 19°C
Dew Point: 46°F , 8°C
Humidity: 49%
Barometer: 29.74 inHg , 1007.1 hPa
Clouds: Clear
Visibility: 10 miles , 16 km
2019/10/20 18:54 KMKC 201854Z 13015G23KT 10SM CLR 19/08 A2974 RMK AO2 PK WND 09026/1756 SLP069 T01890078 $
 
KLWC - Lawrence, Kansas, USA
Distance from station: NW 38mi, 61km
Updated: Thu, 17-Oct-2019 4:53am CDT
NOT Current
Clear
Clear
 Wind from E
Wind: E 6 mph , 9 km/h
Temperature: 36°F , 2°C
Wind Chill: 31°F , -1°C
Dew Point: 34°F , 1°C
Humidity: 93%
Barometer: 30.04 inHg , 1017.3 hPa
Clouds: Clear
Visibility: 10 miles , 16 km
2019/10/17 09:53 KLWC 170953Z 09005KT 10SM CLR 02/01 A3004
KFOE - Topeka/Forbes, Kansas, USA
Distance from station: WNW 43mi, 70km
Updated: Sun, 20-Oct-2019 1:53pm CDT
Clear
Clear
 Wind from SE
Wind: SE 16 mph , 26 km/h
Temperature: 64°F , 18°C
Dew Point: 46°F , 8°C
Humidity: 52%
Barometer: 29.70 inHg , 1005.8 hPa
Clouds: Clear
Visibility: 10 miles , 16 km
2019/10/20 18:53 KFOE 201853Z 13014KT 10SM CLR 18/08 A2970 RMK AO2 PK WND 14030/1808 SLP055 T01830083
 
KMCI - Kansas City/Intl, Missouri, USA
Distance from station: N 45mi, 73km
Updated: Sun, 20-Oct-2019 1:53pm CDT
Mostly cloudy
Mostly cloudy
 Wind from SE
Wind: SE 18 mph , 30 km/h, Gust: 30 mph , 48 km/h
Temperature: 64°F , 18°C
Dew Point: 46°F , 8°C
Humidity: 52%
Barometer: 29.75 inHg , 1007.5 hPa
Clouds: Mostly cloudy
Visibility: 10 miles , 16 km
Cloud details: Partly cloudy 9000 ft
Mostly cloudy 14000 ft
Mostly cloudy 24000 ft
2019/10/20 18:53 KMCI 201853Z 13016G26KT 10SM SCT090 BKN140 BKN240 18/08 A2975 RMK AO2 PK WND 13029/1829 SLP069 T01780083 $
KRCM - Warrensburg Skyh, Missouri, USA
Distance from station: ENE 49mi, 80km
Updated: Sun, 20-Oct-2019 2:35pm CDT

 
2019/10/20 19:35 KRCM 201935Z AUTO RMK AO2 TSNO PWINO